sensor_id;sensor_type;location;lat;lon;timestamp;temperature;humidity
13186;DHT22;6658;53.080;7.428;2023-05-07T00:00:06;11.20;99.90
13186;DHT22;6658;53.080;7.428;2023-05-07T00:02:33;11.20;99.90
13186;DHT22;6658;53.080;7.428;2023-05-07T00:04:59;11.20;99.90
13186;DHT22;6658;53.080;7.428;2023-05-07T00:07:25;11.20;99.90
13186;DHT22;6658;53.080;7.428;2023-05-07T00:09:50;11.20;99.90
13186;DHT22;6658;53.080;7.428;2023-05-07T00:12:16;11.20;99.90
13186;DHT22;6658;53.080;7.428;2023-05-07T00:14:42;11.20;99.90
13186;DHT22;6658;53.080;7.428;2023-05-07T00:17:07;11.30;99.90
13186;DHT22;6658;53.080;7.428;2023-05-07T00:19:33;11.30;99.90
13186;DHT22;6658;53.080;7.428;2023-05-07T00:21:59;11.20;99.90
13186;DHT22;6658;53.080;7.428;2023-05-07T00:24:25;11.30;99.90
13186;DHT22;6658;53.080;7.428;2023-05-07T00:26:50;11.30;99.90
13186;DHT22;6658;53.080;7.428;2023-05-07T00:29:16;11.20;99.90
13186;DHT22;6658;53.080;7.428;2023-05-07T00:31:42;11.30;99.90
13186;DHT22;6658;53.080;7.428;2023-05-07T00:34:08;11.30;99.90
13186;DHT22;6658;53.080;7.428;2023-05-07T00:36:33;11.30;99.90
13186;DHT22;6658;53.080;7.428;2023-05-07T00:39:00;11.30;99.90
13186;DHT22;6658;53.080;7.428;2023-05-07T00:41:27;11.30;99.90
13186;DHT22;6658;53.080;7.428;2023-05-07T00:43:53;11.30;99.90
13186;DHT22;6658;53.080;7.428;2023-05-07T00:46:20;11.20;99.90
13186;DHT22;6658;53.080;7.428;2023-05-07T00:48:47;11.30;99.90
13186;DHT22;6658;53.080;7.428;2023-05-07T00:51:13;11.20;99.90
13186;DHT22;6658;53.080;7.428;2023-05-07T00:53:39;11.20;99.90
13186;DHT22;6658;53.080;7.428;2023-05-07T00:56:06;11.20;99.90
13186;DHT22;6658;53.080;7.428;2023-05-07T00:58:32;11.20;99.90
13186;DHT22;6658;53.080;7.428;2023-05-07T01:00:59;11.20;99.90
13186;DHT22;6658;53.080;7.428;2023-05-07T01:03:25;11.20;99.90
13186;DHT22;6658;53.080;7.428;2023-05-07T01:05:52;11.20;99.90
13186;DHT22;6658;53.080;7.428;2023-05-07T01:08:19;11.20;99.90
13186;DHT22;6658;53.080;7.428;2023-05-07T01:10:46;11.20;99.90
13186;DHT22;6658;53.080;7.428;2023-05-07T01:13:13;11.20;99.90
13186;DHT22;6658;53.080;7.428;2023-05-07T01:15:39;11.10;99.90
13186;DHT22;6658;53.080;7.428;2023-05-07T01:18:06;11.10;99.90
13186;DHT22;6658;53.080;7.428;2023-05-07T01:20:32;11.00;99.90
13186;DHT22;6658;53.080;7.428;2023-05-07T01:23:00;11.00;99.90
13186;DHT22;6658;53.080;7.428;2023-05-07T01:25:26;11.00;99.90
13186;DHT22;6658;53.080;7.428;2023-05-07T01:27:58;11.00;99.90
13186;DHT22;6658;53.080;7.428;2023-05-07T01:30:30;11.00;99.90
13186;DHT22;6658;53.080;7.428;2023-05-07T01:33:09;11.00;99.90
13186;DHT22;6658;53.080;7.428;2023-05-07T01:35:38;10.90;99.90
13186;DHT22;6658;53.080;7.428;2023-05-07T01:38:05;10.90;99.90
13186;DHT22;6658;53.080;7.428;2023-05-07T01:40:31;10.90;99.90
13186;DHT22;6658;53.080;7.428;2023-05-07T01:42:57;10.90;99.90
13186;DHT22;6658;53.080;7.428;2023-05-07T01:45:23;10.90;99.90
13186;DHT22;6658;53.080;7.428;2023-05-07T01:47:49;10.80;99.90
13186;DHT22;6658;53.080;7.428;2023-05-07T01:50:19;10.80;99.90
13186;DHT22;6658;53.080;7.428;2023-05-07T01:52:47;10.80;99.90
13186;DHT22;6658;53.080;7.428;2023-05-07T01:55:12;10.70;99.90
13186;DHT22;6658;53.080;7.428;2023-05-07T01:57:38;10.70;99.90
13186;DHT22;6658;53.080;7.428;2023-05-07T02:00:05;10.70;99.90
13186;DHT22;6658;53.080;7.428;2023-05-07T02:02:31;10.70;99.90
13186;DHT22;6658;53.080;7.428;2023-05-07T02:04:56;10.70;99.90
13186;DHT22;6658;53.080;7.428;2023-05-07T02:07:22;10.60;99.90
13186;DHT22;6658;53.080;7.428;2023-05-07T02:09:48;10.60;99.90
13186;DHT22;6658;53.080;7.428;2023-05-07T02:12:14;10.60;99.90
13186;DHT22;6658;53.080;7.428;2023-05-07T02:14:39;10.50;99.90
13186;DHT22;6658;53.080;7.428;2023-05-07T02:17:05;10.50;99.90
13186;DHT22;6658;53.080;7.428;2023-05-07T02:19:31;10.50;99.90
13186;DHT22;6658;53.080;7.428;2023-05-07T02:21:57;10.40;99.90
13186;DHT22;6658;53.080;7.428;2023-05-07T02:24:22;10.40;99.90
13186;DHT22;6658;53.080;7.428;2023-05-07T02:26:48;10.40;99.90
13186;DHT22;6658;53.080;7.428;2023-05-07T02:29:14;10.40;99.90
13186;DHT22;6658;53.080;7.428;2023-05-07T02:31:40;10.40;99.90
13186;DHT22;6658;53.080;7.428;2023-05-07T02:34:05;10.40;99.90
13186;DHT22;6658;53.080;7.428;2023-05-07T02:36:31;10.30;99.90
13186;DHT22;6658;53.080;7.428;2023-05-07T02:38:57;10.30;99.90
13186;DHT22;6658;53.080;7.428;2023-05-07T02:41:23;10.30;99.90
13186;DHT22;6658;53.080;7.428;2023-05-07T02:43:48;10.30;99.90
13186;DHT22;6658;53.080;7.428;2023-05-07T02:46:14;10.20;99.90
13186;DHT22;6658;53.080;7.428;2023-05-07T02:48:41;10.10;99.90
13186;DHT22;6658;53.080;7.428;2023-05-07T02:51:06;10.20;99.90
13186;DHT22;6658;53.080;7.428;2023-05-07T02:53:32;10.20;99.90
13186;DHT22;6658;53.080;7.428;2023-05-07T02:55:59;10.20;99.90
13186;DHT22;6658;53.080;7.428;2023-05-07T02:58:25;10.20;99.90
13186;DHT22;6658;53.080;7.428;2023-05-07T03:00:51;10.20;99.90
13186;DHT22;6658;53.080;7.428;2023-05-07T03:03:17;10.20;99.90
13186;DHT22;6658;53.080;7.428;2023-05-07T03:05:43;10.20;99.90
13186;DHT22;6658;53.080;7.428;2023-05-07T03:08:09;10.10;99.90
13186;DHT22;6658;53.080;7.428;2023-05-07T03:10:36;10.20;99.90
13186;DHT22;6658;53.080;7.428;2023-05-07T03:13:01;10.20;99.90
13186;DHT22;6658;53.080;7.428;2023-05-07T03:15:27;10.20;99.90
13186;DHT22;6658;53.080;7.428;2023-05-07T03:17:53;10.20;99.90
13186;DHT22;6658;53.080;7.428;2023-05-07T03:20:19;10.20;99.90
13186;DHT22;6658;53.080;7.428;2023-05-07T03:22:44;10.10;99.90
13186;DHT22;6658;53.080;7.428;2023-05-07T03:25:10;10.10;99.90
13186;DHT22;6658;53.080;7.428;2023-05-07T03:27:36;10.10;99.90
13186;DHT22;6658;53.080;7.428;2023-05-07T03:30:02;10.20;99.90
13186;DHT22;6658;53.080;7.428;2023-05-07T03:32:28;10.20;99.90
13186;DHT22;6658;53.080;7.428;2023-05-07T03:34:54;10.20;99.90
13186;DHT22;6658;53.080;7.428;2023-05-07T03:37:21;10.20;99.90
13186;DHT22;6658;53.080;7.428;2023-05-07T03:39:47;10.20;99.90
13186;DHT22;6658;53.080;7.428;2023-05-07T03:42:13;10.10;99.90
13186;DHT22;6658;53.080;7.428;2023-05-07T03:44:38;10.20;99.90
13186;DHT22;6658;53.080;7.428;2023-05-07T03:47:04;10.20;99.90
13186;DHT22;6658;53.080;7.428;2023-05-07T03:49:30;10.20;99.90
13186;DHT22;6658;53.080;7.428;2023-05-07T03:51:56;10.10;99.90
13186;DHT22;6658;53.080;7.428;2023-05-07T03:54:22;10.10;99.90
13186;DHT22;6658;53.080;7.428;2023-05-07T03:56:48;10.10;99.90
13186;DHT22;6658;53.080;7.428;2023-05-07T03:59:13;10.10;99.90
13186;DHT22;6658;53.080;7.428;2023-05-07T04:01:39;10.10;99.90
13186;DHT22;6658;53.080;7.428;2023-05-07T04:04:05;10.10;99.90
13186;DHT22;6658;53.080;7.428;2023-05-07T04:06:31;10.10;99.90
13186;DHT22;6658;53.080;7.428;2023-05-07T04:08:57;10.10;99.90
13186;DHT22;6658;53.080;7.428;2023-05-07T04:11:23;10.10;99.90
13186;DHT22;6658;53.080;7.428;2023-05-07T04:13:49;10.10;99.90
13186;DHT22;6658;53.080;7.428;2023-05-07T04:16:15;10.10;99.90
13186;DHT22;6658;53.080;7.428;2023-05-07T04:18:43;10.10;99.90
13186;DHT22;6658;53.080;7.428;2023-05-07T04:21:19;10.10;99.90
13186;DHT22;6658;53.080;7.428;2023-05-07T04:23:48;10.00;99.90
13186;DHT22;6658;53.080;7.428;2023-05-07T04:26:16;10.00;99.90
13186;DHT22;6658;53.080;7.428;2023-05-07T04:28:43;10.00;99.90
13186;DHT22;6658;53.080;7.428;2023-05-07T04:31:09;10.00;99.90
13186;DHT22;6658;53.080;7.428;2023-05-07T04:33:35;10.00;99.90
13186;DHT22;6658;53.080;7.428;2023-05-07T04:36:04;10.00;99.90
13186;DHT22;6658;53.080;7.428;2023-05-07T04:38:31;9.90;99.90
13186;DHT22;6658;53.080;7.428;2023-05-07T04:40:58;9.90;99.90
13186;DHT22;6658;53.080;7.428;2023-05-07T04:43:26;9.90;99.90
13186;DHT22;6658;53.080;7.428;2023-05-07T04:45:52;9.90;99.90
13186;DHT22;6658;53.080;7.428;2023-05-07T04:48:18;10.00;99.90
13186;DHT22;6658;53.080;7.428;2023-05-07T04:50:51;9.90;99.90
13186;DHT22;6658;53.080;7.428;2023-05-07T04:53:17;9.90;99.90
13186;DHT22;6658;53.080;7.428;2023-05-07T04:55:54;10.00;99.90
13186;DHT22;6658;53.080;7.428;2023-05-07T04:58:23;9.90;99.90
13186;DHT22;6658;53.080;7.428;2023-05-07T05:00:49;10.00;99.90
13186;DHT22;6658;53.080;7.428;2023-05-07T05:03:15;10.00;99.90
13186;DHT22;6658;53.080;7.428;2023-05-07T05:05:41;10.00;99.90
13186;DHT22;6658;53.080;7.428;2023-05-07T05:08:06;10.00;99.90
13186;DHT22;6658;53.080;7.428;2023-05-07T05:10:32;10.00;99.90
13186;DHT22;6658;53.080;7.428;2023-05-07T05:12:58;10.00;99.90
13186;DHT22;6658;53.080;7.428;2023-05-07T05:15:23;10.00;99.90
13186;DHT22;6658;53.080;7.428;2023-05-07T05:17:49;10.00;99.90
13186;DHT22;6658;53.080;7.428;2023-05-07T05:20:15;10.00;99.90
13186;DHT22;6658;53.080;7.428;2023-05-07T05:22:42;10.00;99.90
13186;DHT22;6658;53.080;7.428;2023-05-07T05:25:07;10.10;99.90
13186;DHT22;6658;53.080;7.428;2023-05-07T05:27:34;10.10;99.90
13186;DHT22;6658;53.080;7.428;2023-05-07T05:30:00;10.10;99.90
13186;DHT22;6658;53.080;7.428;2023-05-07T05:32:26;10.20;99.90
13186;DHT22;6658;53.080;7.428;2023-05-07T05:34:52;10.20;99.90
13186;DHT22;6658;53.080;7.428;2023-05-07T05:37:18;10.20;99.90
13186;DHT22;6658;53.080;7.428;2023-05-07T05:39:43;10.20;99.90
13186;DHT22;6658;53.080;7.428;2023-05-07T05:42:09;10.20;99.90
13186;DHT22;6658;53.080;7.428;2023-05-07T05:44:35;10.20;99.90
13186;DHT22;6658;53.080;7.428;2023-05-07T05:47:00;10.30;99.90
13186;DHT22;6658;53.080;7.428;2023-05-07T05:49:26;10.30;99.90
13186;DHT22;6658;53.080;7.428;2023-05-07T05:51:52;10.30;99.90
13186;DHT22;6658;53.080;7.428;2023-05-07T05:54:18;10.30;99.90
13186;DHT22;6658;53.080;7.428;2023-05-07T05:56:44;10.30;99.90
13186;DHT22;6658;53.080;7.428;2023-05-07T05:59:10;10.30;99.90
13186;DHT22;6658;53.080;7.428;2023-05-07T06:01:36;10.30;99.90
13186;DHT22;6658;53.080;7.428;2023-05-07T06:04:02;10.40;99.90
13186;DHT22;6658;53.080;7.428;2023-05-07T06:06:27;10.40;99.90
13186;DHT22;6658;53.080;7.428;2023-05-07T06:08:57;10.30;99.90
13186;DHT22;6658;53.080;7.428;2023-05-07T06:11:22;10.30;99.90
13186;DHT22;6658;53.080;7.428;2023-05-07T06:13:48;10.30;99.90
13186;DHT22;6658;53.080;7.428;2023-05-07T06:16:14;10.40;99.90
13186;DHT22;6658;53.080;7.428;2023-05-07T06:18:40;10.40;99.90
13186;DHT22;6658;53.080;7.428;2023-05-07T06:21:06;10.40;99.90
13186;DHT22;6658;53.080;7.428;2023-05-07T06:23:32;10.40;99.90
13186;DHT22;6658;53.080;7.428;2023-05-07T06:26:00;10.50;99.90
13186;DHT22;6658;53.080;7.428;2023-05-07T06:28:26;10.50;99.90
13186;DHT22;6658;53.080;7.428;2023-05-07T06:30:52;10.50;99.90
13186;DHT22;6658;53.080;7.428;2023-05-07T06:33:18;10.40;99.90
13186;DHT22;6658;53.080;7.428;2023-05-07T06:35:45;10.50;99.90
13186;DHT22;6658;53.080;7.428;2023-05-07T06:38:19;10.60;99.90
13186;DHT22;6658;53.080;7.428;2023-05-07T06:40:49;10.50;99.90
13186;DHT22;6658;53.080;7.428;2023-05-07T06:43:15;10.50;99.90
13186;DHT22;6658;53.080;7.428;2023-05-07T06:45:40;10.50;99.90
13186;DHT22;6658;53.080;7.428;2023-05-07T06:48:06;10.60;99.90
13186;DHT22;6658;53.080;7.428;2023-05-07T06:50:32;10.70;99.90
13186;DHT22;6658;53.080;7.428;2023-05-07T06:52:57;10.70;99.90
13186;DHT22;6658;53.080;7.428;2023-05-07T06:55:23;10.80;99.90
13186;DHT22;6658;53.080;7.428;2023-05-07T06:57:49;10.90;99.90
13186;DHT22;6658;53.080;7.428;2023-05-07T07:00:15;10.90;99.90
13186;DHT22;6658;53.080;7.428;2023-05-07T07:02:41;11.00;99.90
13186;DHT22;6658;53.080;7.428;2023-05-07T07:05:07;11.00;99.90
13186;DHT22;6658;53.080;7.428;2023-05-07T07:07:33;11.00;99.90
13186;DHT22;6658;53.080;7.428;2023-05-07T07:09:58;11.00;99.90
13186;DHT22;6658;53.080;7.428;2023-05-07T07:12:24;11.10;99.90
13186;DHT22;6658;53.080;7.428;2023-05-07T07:14:51;11.10;99.90
13186;DHT22;6658;53.080;7.428;2023-05-07T07:17:17;11.10;99.90
13186;DHT22;6658;53.080;7.428;2023-05-07T07:19:42;11.20;99.90
13186;DHT22;6658;53.080;7.428;2023-05-07T07:22:08;11.20;99.90
13186;DHT22;6658;53.080;7.428;2023-05-07T07:24:34;11.10;99.90
13186;DHT22;6658;53.080;7.428;2023-05-07T07:27:00;11.20;99.90
13186;DHT22;6658;53.080;7.428;2023-05-07T07:29:26;11.30;99.90
13186;DHT22;6658;53.080;7.428;2023-05-07T07:31:52;11.40;99.90
13186;DHT22;6658;53.080;7.428;2023-05-07T07:34:18;11.30;99.90
13186;DHT22;6658;53.080;7.428;2023-05-07T07:36:43;11.40;99.90
13186;DHT22;6658;53.080;7.428;2023-05-07T07:39:09;11.40;99.90
13186;DHT22;6658;53.080;7.428;2023-05-07T07:41:35;11.40;99.90
13186;DHT22;6658;53.080;7.428;2023-05-07T07:44:01;11.50;99.90
13186;DHT22;6658;53.080;7.428;2023-05-07T07:46:29;11.50;99.90
13186;DHT22;6658;53.080;7.428;2023-05-07T07:48:54;11.50;99.90
13186;DHT22;6658;53.080;7.428;2023-05-07T07:51:20;11.50;99.90
13186;DHT22;6658;53.080;7.428;2023-05-07T07:53:46;11.50;99.90
13186;DHT22;6658;53.080;7.428;2023-05-07T07:56:12;11.50;99.90
13186;DHT22;6658;53.080;7.428;2023-05-07T07:58:38;11.30;99.90
13186;DHT22;6658;53.080;7.428;2023-05-07T08:01:06;11.30;99.90
13186;DHT22;6658;53.080;7.428;2023-05-07T08:03:32;11.30;99.90
13186;DHT22;6658;53.080;7.428;2023-05-07T08:05:58;11.40;99.90
13186;DHT22;6658;53.080;7.428;2023-05-07T08:08:24;11.40;99.90
13186;DHT22;6658;53.080;7.428;2023-05-07T08:10:50;11.50;99.90
13186;DHT22;6658;53.080;7.428;2023-05-07T08:13:17;11.60;99.90
13186;DHT22;6658;53.080;7.428;2023-05-07T08:15:45;11.70;99.90
13186;DHT22;6658;53.080;7.428;2023-05-07T08:18:11;11.90;99.90
13186;DHT22;6658;53.080;7.428;2023-05-07T08:20:36;12.10;99.90
13186;DHT22;6658;53.080;7.428;2023-05-07T08:23:05;12.30;99.90
13186;DHT22;6658;53.080;7.428;2023-05-07T08:25:33;12.30;99.90
13186;DHT22;6658;53.080;7.428;2023-05-07T08:28:00;12.40;99.90
13186;DHT22;6658;53.080;7.428;2023-05-07T08:30:25;12.30;99.90
13186;DHT22;6658;53.080;7.428;2023-05-07T08:32:51;12.30;99.90
13186;DHT22;6658;53.080;7.428;2023-05-07T08:35:17;12.30;99.90
13186;DHT22;6658;53.080;7.428;2023-05-07T08:37:43;12.30;99.90
13186;DHT22;6658;53.080;7.428;2023-05-07T08:40:10;12.40;99.90
13186;DHT22;6658;53.080;7.428;2023-05-07T08:42:36;12.50;99.90
13186;DHT22;6658;53.080;7.428;2023-05-07T08:45:04;12.70;99.90
13186;DHT22;6658;53.080;7.428;2023-05-07T08:47:40;12.80;99.90
13186;DHT22;6658;53.080;7.428;2023-05-07T08:50:08;12.90;99.90
13186;DHT22;6658;53.080;7.428;2023-05-07T08:52:35;13.00;99.90
13186;DHT22;6658;53.080;7.428;2023-05-07T08:55:02;13.10;99.90
13186;DHT22;6658;53.080;7.428;2023-05-07T08:57:28;13.10;99.90
13186;DHT22;6658;53.080;7.428;2023-05-07T08:59:54;13.50;99.90
13186;DHT22;6658;53.080;7.428;2023-05-07T09:02:20;13.80;99.90
13186;DHT22;6658;53.080;7.428;2023-05-07T09:04:46;13.90;99.90
13186;DHT22;6658;53.080;7.428;2023-05-07T09:07:11;13.70;99.90
13186;DHT22;6658;53.080;7.428;2023-05-07T09:09:37;13.60;99.90
13186;DHT22;6658;53.080;7.428;2023-05-07T09:12:03;13.60;99.90
13186;DHT22;6658;53.080;7.428;2023-05-07T09:14:29;13.40;99.90
13186;DHT22;6658;53.080;7.428;2023-05-07T09:16:56;13.40;99.90
13186;DHT22;6658;53.080;7.428;2023-05-07T09:19:23;13.40;99.90
13186;DHT22;6658;53.080;7.428;2023-05-07T09:21:49;13.50;99.90
13186;DHT22;6658;53.080;7.428;2023-05-07T09:24:16;13.50;99.90
13186;DHT22;6658;53.080;7.428;2023-05-07T09:26:47;13.50;99.90
13186;DHT22;6658;53.080;7.428;2023-05-07T09:29:13;13.50;99.90
13186;DHT22;6658;53.080;7.428;2023-05-07T09:31:40;13.60;99.90
13186;DHT22;6658;53.080;7.428;2023-05-07T09:34:06;13.80;99.90
13186;DHT22;6658;53.080;7.428;2023-05-07T09:36:33;13.70;99.90
13186;DHT22;6658;53.080;7.428;2023-05-07T09:39:02;13.80;99.90
13186;DHT22;6658;53.080;7.428;2023-05-07T09:41:30;13.90;99.90
13186;DHT22;6658;53.080;7.428;2023-05-07T09:43:56;13.90;99.90
13186;DHT22;6658;53.080;7.428;2023-05-07T09:46:27;14.00;99.90
13186;DHT22;6658;53.080;7.428;2023-05-07T09:48:57;14.10;99.90
13186;DHT22;6658;53.080;7.428;2023-05-07T09:51:34;14.40;99.90
13186;DHT22;6658;53.080;7.428;2023-05-07T09:54:04;14.30;99.90
13186;DHT22;6658;53.080;7.428;2023-05-07T09:56:30;14.60;99.90
13186;DHT22;6658;53.080;7.428;2023-05-07T09:59:00;14.90;99.90
13186;DHT22;6658;53.080;7.428;2023-05-07T10:01:26;14.90;99.90
13186;DHT22;6658;53.080;7.428;2023-05-07T10:03:53;14.60;99.90
13186;DHT22;6658;53.080;7.428;2023-05-07T10:06:20;14.60;99.90
13186;DHT22;6658;53.080;7.428;2023-05-07T10:08:46;14.60;99.90
13186;DHT22;6658;53.080;7.428;2023-05-07T10:11:14;14.40;99.90
13186;DHT22;6658;53.080;7.428;2023-05-07T10:13:42;14.40;99.90
13186;DHT22;6658;53.080;7.428;2023-05-07T10:16:08;14.40;99.90
13186;DHT22;6658;53.080;7.428;2023-05-07T10:18:34;14.30;99.90
13186;DHT22;6658;53.080;7.428;2023-05-07T10:21:18;14.40;99.90
13186;DHT22;6658;53.080;7.428;2023-05-07T10:24:04;14.70;99.90
13186;DHT22;6658;53.080;7.428;2023-05-07T10:26:36;14.90;99.90
13186;DHT22;6658;53.080;7.428;2023-05-07T10:29:29;14.70;99.90
13186;DHT22;6658;53.080;7.428;2023-05-07T10:32:04;14.80;99.90
13186;DHT22;6658;53.080;7.428;2023-05-07T10:34:47;14.80;99.90
13186;DHT22;6658;53.080;7.428;2023-05-07T10:37:13;15.00;99.90
13186;DHT22;6658;53.080;7.428;2023-05-07T10:39:39;15.00;99.90
13186;DHT22;6658;53.080;7.428;2023-05-07T10:42:09;14.90;99.90
13186;DHT22;6658;53.080;7.428;2023-05-07T10:44:35;14.70;99.90
13186;DHT22;6658;53.080;7.428;2023-05-07T10:47:10;14.70;99.90
13186;DHT22;6658;53.080;7.428;2023-05-07T10:52:28;14.90;99.90
13186;DHT22;6658;53.080;7.428;2023-05-07T10:57:44;15.30;99.90
13186;DHT22;6658;53.080;7.428;2023-05-07T11:05:25;15.20;99.90
13186;DHT22;6658;53.080;7.428;2023-05-07T11:07:55;15.20;99.90
13186;DHT22;6658;53.080;7.428;2023-05-07T11:10:21;15.30;99.90
13186;DHT22;6658;53.080;7.428;2023-05-07T11:12:48;15.20;99.90
13186;DHT22;6658;53.080;7.428;2023-05-07T11:15:15;15.40;99.90
13186;DHT22;6658;53.080;7.428;2023-05-07T11:17:55;15.70;99.90
13186;DHT22;6658;53.080;7.428;2023-05-07T11:20:21;15.60;99.90
13186;DHT22;6658;53.080;7.428;2023-05-07T11:26:06;16.20;99.90
13186;DHT22;6658;53.080;7.428;2023-05-07T11:28:38;16.60;99.90
13186;DHT22;6658;53.080;7.428;2023-05-07T11:31:04;16.60;99.90
13186;DHT22;6658;53.080;7.428;2023-05-07T11:33:30;16.40;99.90
13186;DHT22;6658;53.080;7.428;2023-05-07T11:35:57;16.40;99.90
13186;DHT22;6658;53.080;7.428;2023-05-07T11:38:24;16.50;99.90
13186;DHT22;6658;53.080;7.428;2023-05-07T11:40:57;16.50;99.90
13186;DHT22;6658;53.080;7.428;2023-05-07T11:43:26;16.60;99.90
13186;DHT22;6658;53.080;7.428;2023-05-07T11:45:52;16.70;99.90
13186;DHT22;6658;53.080;7.428;2023-05-07T11:48:19;16.60;99.90
13186;DHT22;6658;53.080;7.428;2023-05-07T11:50:53;16.70;99.90
13186;DHT22;6658;53.080;7.428;2023-05-07T11:53:20;16.90;99.90
13186;DHT22;6658;53.080;7.428;2023-05-07T11:55:52;16.60;99.90
13186;DHT22;6658;53.080;7.428;2023-05-07T11:58:23;16.90;99.90
13186;DHT22;6658;53.080;7.428;2023-05-07T12:00:50;17.00;99.90
13186;DHT22;6658;53.080;7.428;2023-05-07T12:03:16;17.00;99.90
13186;DHT22;6658;53.080;7.428;2023-05-07T12:05:47;16.70;99.90
13186;DHT22;6658;53.080;7.428;2023-05-07T12:08:17;16.60;99.90
13186;DHT22;6658;53.080;7.428;2023-05-07T12:10:44;16.40;99.90
13186;DHT22;6658;53.080;7.428;2023-05-07T12:13:20;16.60;99.90
13186;DHT22;6658;53.080;7.428;2023-05-07T12:15:46;16.60;99.90
13186;DHT22;6658;53.080;7.428;2023-05-07T12:18:14;16.70;99.90
13186;DHT22;6658;53.080;7.428;2023-05-07T12:20:40;16.70;99.90
13186;DHT22;6658;53.080;7.428;2023-05-07T12:23:06;16.80;99.90
13186;DHT22;6658;53.080;7.428;2023-05-07T12:25:35;16.80;99.90
13186;DHT22;6658;53.080;7.428;2023-05-07T12:28:04;16.90;99.90
13186;DHT22;6658;53.080;7.428;2023-05-07T12:30:39;16.70;99.90
13186;DHT22;6658;53.080;7.428;2023-05-07T12:33:05;16.50;99.90
13186;DHT22;6658;53.080;7.428;2023-05-07T12:35:33;16.50;99.90
13186;DHT22;6658;53.080;7.428;2023-05-07T12:38:01;16.60;99.90
13186;DHT22;6658;53.080;7.428;2023-05-07T12:40:47;16.90;99.90
13186;DHT22;6658;53.080;7.428;2023-05-07T12:45:47;16.90;99.90
13186;DHT22;6658;53.080;7.428;2023-05-07T12:48:14;16.90;99.90
13186;DHT22;6658;53.080;7.428;2023-05-07T12:50:40;17.10;99.90
13186;DHT22;6658;53.080;7.428;2023-05-07T12:53:07;17.20;99.90
13186;DHT22;6658;53.080;7.428;2023-05-07T12:55:54;17.20;99.90
13186;DHT22;6658;53.080;7.428;2023-05-07T12:58:25;17.10;99.90
13186;DHT22;6658;53.080;7.428;2023-05-07T13:00:52;17.20;99.90
13186;DHT22;6658;53.080;7.428;2023-05-07T13:03:35;17.30;99.90
13186;DHT22;6658;53.080;7.428;2023-05-07T13:06:03;17.30;99.90
13186;DHT22;6658;53.080;7.428;2023-05-07T13:08:34;17.50;99.90
13186;DHT22;6658;53.080;7.428;2023-05-07T13:11:01;17.50;99.90
13186;DHT22;6658;53.080;7.428;2023-05-07T13:13:31;17.50;99.90
13186;DHT22;6658;53.080;7.428;2023-05-07T13:16:01;17.30;99.90
13186;DHT22;6658;53.080;7.428;2023-05-07T13:18:33;17.20;99.90
13186;DHT22;6658;53.080;7.428;2023-05-07T13:21:00;17.10;99.90
13186;DHT22;6658;53.080;7.428;2023-05-07T13:23:26;17.10;99.90
13186;DHT22;6658;53.080;7.428;2023-05-07T13:25:52;17.10;99.90
13186;DHT22;6658;53.080;7.428;2023-05-07T13:28:19;17.10;99.90
13186;DHT22;6658;53.080;7.428;2023-05-07T13:30:46;17.30;99.90
13186;DHT22;6658;53.080;7.428;2023-05-07T13:33:12;17.40;99.90
13186;DHT22;6658;53.080;7.428;2023-05-07T13:35:41;17.30;99.90
13186;DHT22;6658;53.080;7.428;2023-05-07T13:38:07;17.10;99.90
13186;DHT22;6658;53.080;7.428;2023-05-07T13:40:35;17.20;99.90
13186;DHT22;6658;53.080;7.428;2023-05-07T13:43:01;17.10;99.90
13186;DHT22;6658;53.080;7.428;2023-05-07T13:45:38;17.10;99.90
13186;DHT22;6658;53.080;7.428;2023-05-07T13:48:04;17.00;99.90
13186;DHT22;6658;53.080;7.428;2023-05-07T13:50:30;16.90;99.90
13186;DHT22;6658;53.080;7.428;2023-05-07T13:53:01;16.90;99.90
13186;DHT22;6658;53.080;7.428;2023-05-07T13:55:29;16.90;99.90
13186;DHT22;6658;53.080;7.428;2023-05-07T13:58:02;17.10;99.90
13186;DHT22;6658;53.080;7.428;2023-05-07T14:00:29;17.20;99.90
13186;DHT22;6658;53.080;7.428;2023-05-07T14:02:56;17.10;99.90
13186;DHT22;6658;53.080;7.428;2023-05-07T14:05:22;17.00;99.90
13186;DHT22;6658;53.080;7.428;2023-05-07T14:07:54;16.90;99.90
13186;DHT22;6658;53.080;7.428;2023-05-07T14:10:20;16.90;99.90
13186;DHT22;6658;53.080;7.428;2023-05-07T14:12:46;16.90;99.90
13186;DHT22;6658;53.080;7.428;2023-05-07T14:15:13;17.00;99.90
13186;DHT22;6658;53.080;7.428;2023-05-07T14:17:39;17.20;99.90
13186;DHT22;6658;53.080;7.428;2023-05-07T14:20:05;17.20;99.90
13186;DHT22;6658;53.080;7.428;2023-05-07T14:22:35;17.30;99.90
13186;DHT22;6658;53.080;7.428;2023-05-07T14:25:01;17.50;99.90
13186;DHT22;6658;53.080;7.428;2023-05-07T14:27:27;17.60;99.90
13186;DHT22;6658;53.080;7.428;2023-05-07T14:29:53;17.60;99.90
13186;DHT22;6658;53.080;7.428;2023-05-07T14:32:18;17.70;99.90
13186;DHT22;6658;53.080;7.428;2023-05-07T14:34:45;17.60;99.90
13186;DHT22;6658;53.080;7.428;2023-05-07T14:37:11;17.60;99.90
13186;DHT22;6658;53.080;7.428;2023-05-07T14:39:37;17.50;99.90
13186;DHT22;6658;53.080;7.428;2023-05-07T14:42:03;17.40;99.90
13186;DHT22;6658;53.080;7.428;2023-05-07T14:44:28;17.50;99.90
13186;DHT22;6658;53.080;7.428;2023-05-07T14:46:54;17.40;99.90
13186;DHT22;6658;53.080;7.428;2023-05-07T14:49:20;17.30;99.90
13186;DHT22;6658;53.080;7.428;2023-05-07T14:51:47;17.20;99.90
13186;DHT22;6658;53.080;7.428;2023-05-07T14:54:13;17.30;99.90
13186;DHT22;6658;53.080;7.428;2023-05-07T14:56:39;17.40;99.90
13186;DHT22;6658;53.080;7.428;2023-05-07T14:59:06;17.40;99.90
13186;DHT22;6658;53.080;7.428;2023-05-07T15:01:32;17.50;99.90
13186;DHT22;6658;53.080;7.428;2023-05-07T15:03:58;17.50;99.90
13186;DHT22;6658;53.080;7.428;2023-05-07T15:06:23;17.60;99.90
13186;DHT22;6658;53.080;7.428;2023-05-07T15:08:49;17.60;99.90
13186;DHT22;6658;53.080;7.428;2023-05-07T15:11:15;17.60;99.90
13186;DHT22;6658;53.080;7.428;2023-05-07T15:13:42;17.60;99.90
13186;DHT22;6658;53.080;7.428;2023-05-07T15:16:08;17.60;99.90
13186;DHT22;6658;53.080;7.428;2023-05-07T15:18:34;17.60;99.90
13186;DHT22;6658;53.080;7.428;2023-05-07T15:20:59;17.60;99.90
13186;DHT22;6658;53.080;7.428;2023-05-07T15:23:25;17.50;99.90
13186;DHT22;6658;53.080;7.428;2023-05-07T15:25:52;17.50;99.90
13186;DHT22;6658;53.080;7.428;2023-05-07T15:28:21;17.50;99.90
13186;DHT22;6658;53.080;7.428;2023-05-07T15:30:46;17.60;99.90
13186;DHT22;6658;53.080;7.428;2023-05-07T15:33:12;17.60;99.90
13186;DHT22;6658;53.080;7.428;2023-05-07T15:35:38;17.60;99.90
13186;DHT22;6658;53.080;7.428;2023-05-07T15:38:04;17.50;99.90
13186;DHT22;6658;53.080;7.428;2023-05-07T15:40:30;17.50;99.90
13186;DHT22;6658;53.080;7.428;2023-05-07T15:42:56;17.50;99.90
13186;DHT22;6658;53.080;7.428;2023-05-07T15:45:23;17.40;99.90
13186;DHT22;6658;53.080;7.428;2023-05-07T15:47:49;17.40;99.90
13186;DHT22;6658;53.080;7.428;2023-05-07T15:50:15;17.40;99.90
13186;DHT22;6658;53.080;7.428;2023-05-07T15:52:40;17.30;99.90
13186;DHT22;6658;53.080;7.428;2023-05-07T15:55:07;17.30;99.90
13186;DHT22;6658;53.080;7.428;2023-05-07T15:57:34;17.20;99.90
13186;DHT22;6658;53.080;7.428;2023-05-07T16:00:01;17.20;99.90
13186;DHT22;6658;53.080;7.428;2023-05-07T16:02:28;17.20;99.90